Wray, Colorado
Current Conditions -  °F | °C
As of 1:15 PM on Thursday 23 Oct 2014 (Local Time) from K2V5 Reporting Station
Clear Clear  
Wind Chill: 78°   Ceiling: Unl
Heat Index: 78°   Visibility: 10mi
Dew Point: 37°   Wind: 10mph
Humidity: 24%   Direction: 160°SSE
Pressure: 30.06"   Gusts: NA
Location:  40.08°N, 102.22°W
Report Text: K2V5 231915Z AUTO 16009KT 10SM CLR 25/03 A3006 RMK AO2 T02530030
Loading
Personal Weather Stations






























Interactive Weather Map New forecast layout! Learn more

10-Day Weather Forecast

Advertisements
Track Severe Weather on mobile